Aérodrome :
LOGIN :

S'inscrire | Disclaimer

   EN    FR    IT 

 










Légende :    VFR   VFR Marginal   IFR   IFR Intensif   IFR Très Intensif
Visi : 
Plafond : 
>= 8 km
>= 3000ft
5 à 8 km
1000 à 3000 ft
1500m à 5 km
500 à 1000 ft
800 à 1500m
200 à 500 ft
< 800m
< 200 ft
Symboles :   Orages  Brouillard  Fortes neiges  Fortes précipitations  Vent > 20 kt
SIGMETs :   Divers  Orages  Givrage  Turbulence  Onde Orograph.  Cendres Volcan.






- Altitude de l'aérodrome : 17 ft
- Code IATA : CPH


EKCH - København - Kastrup (Copenhagen)

DERNIER METAR :
  • 230750Z AUTO 20005KT 9999 OVC056/// 17/13 Q1016 TEMPO SCT030CB

METARs EXPIRÉS :
  • 230720Z AUTO 21006KT 170V240 9999 FEW044/// BKN074/// 18/13 Q1016 TEMPO SCT030CB
  • 230650Z AUTO 22003KT 9999 BKN041/// OVC083/// 18/12 Q1016 TEMPO SCT030CB
  • 230620Z AUTO 22004KT 170V250 9999 SCT041/// BKN083/// 17/12 Q1016 TEMPO SCT030CB
  • 230550Z AUTO 25003KT 9999 FEW048/// 17/13 Q1016 NOSIG
  • 230520Z AUTO 24004KT 210V270 9999 NCD 16/13 Q1016 NOSIG
  • 230450Z AUTO 24005KT 9999 NCD 15/13 Q1016 NOSIG
  • 230420Z AUTO 24003KT 9999 NCD 13/11 Q1016 NOSIG
  • 230350Z AUTO 24004KT 9999 NCD 12/10 Q1016 NOSIG

TAF TAF EKCH
Valide du 23 à 06h jusqu'au 24 à 06h UTC


230508Z 2306/2406 24005KT 9999 SCT035
BECMG 2306/2309 18010KT
TEMPO 2307/2312 SCT030CB
TEMPO 2312/2406 4000 SHRA BKN012 SCT020CB



MET'MAP, la Météo Aéronautique d'un coup d'oeil ! - Copyright ORBIFLY Décembre 2007 - Disclaimer

ORBIFLY MET'MAP TEAM :

Programmation & Développement : Alexandra Zaïnal
Sur une idée originale de : Baudouin d'Aumeries
Soutien technique & logistique : Manuel Goepfert
Assistance : Marc-Olivier Méhu




SOURCES & CREDITS :

   NOAA